^^
Saratoga-Weather Station Historical Data
Daily Summary for July 3, 2021 Units:  Both    English   Metric
Daily Weekly Monthly Yearly Custom
  High: Low: Average:
Temperature: 50.4 °F /  10.2 °C 41.4 °F /  5.2 °C 45 °F /  7.2 °C
Dew Point: 48.4 °F /  9.1 °C 40.1 °F /  4.5 °C 43.2 °F /  6.2 °C
Humidity: 98% 84% 94%
Wind Speed: 13mph /  20.9km/h - 1.9mph /  3.1km/h
Wind Gust: 17mph /  27.4km/h - -
Wind- - WSW
Pressure: 29.6 in /  1001.7 hPa 29.4 in /  995.6 hPa -
Precipitation: 0.65 in /  16.5 mm    
Historical Graphs
 
 
Tabular Data for July 3, 2021
Time Temperature Dew Point Pressure Wind Wind Speed Wind Gust Humidity Rainfall Rate (Hourly) solar
00:04 41.4 °F /  5.2 °C 40.3 °F /  4.6 °C 29.5in /  1000.3hPa Calm     96% 0in /  0.0mm 0 W/m2
00:09 41.4 °F /  5.2 °C 40.3 °F /  4.6 °C 29.5in /  1000.3hPa Calm     96% 0in /  0.0mm 0 W/m2
00:14 41.5 °F /  5.3 °C 40.5 °F /  4.7 °C 29.5in /  1000.3hPa Calm     96% 0in /  0.0mm 0 W/m2
00:19 41.7 °F /  5.4 °C 41 °F /  5 °C 29.5in /  1000.0hPa Calm     97% 0in /  0.0mm 0 W/m2
00:24 41.7 °F /  5.4 °C 41 °F /  5 °C 29.5in /  1000.0hPa Calm     97% 0in /  0.0mm 0 W/m2
00:29 41.7 °F /  5.4 °C 41 °F /  5 °C 29.5in /  1000.0hPa Calm     97% 0in /  0.0mm 0 W/m2
00:34 41.9 °F /  5.5 °C 41.2 °F /  5.1 °C 29.5in /  999.7hPa Calm     97% 0in /  0.0mm 0 W/m2
00:39 41.9 °F /  5.5 °C 41.2 °F /  5.1 °C 29.5in /  999.7hPa Calm     97% 0in /  0.0mm 0 W/m2
00:44 42.1 °F /  5.6 °C 41.4 °F /  5.2 °C 29.5in /  999.7hPa West 0.9mph /  1.4km/h 2mph /  3.2km/h 97% 0in /  0.0mm 0 W/m2
00:49 42.1 °F /  5.6 °C 41 °F /  5 °C 29.5in /  999.7hPa Calm   1mph /  1.6km/h 96% 0.01in /  0.2mm 0 W/m2
00:54 42.1 °F /  5.6 °C 41 °F /  5 °C 29.5in /  999.7hPa Calm   1mph /  1.6km/h 96% 0.01in /  0.2mm 0 W/m2
00:59 42.1 °F /  5.6 °C 41 °F /  5 °C 29.5in /  999.7hPa Calm     96% 0.01in /  0.2mm 0 W/m2
01:04 42.1 °F /  5.6 °C 41 °F /  5 °C 29.5in /  999.7hPa Calm   1mph /  1.6km/h 96% 0.01in /  0.2mm 0 W/m2
01:22 42.1 °F /  5.6 °C 41 °F /  5 °C 29.5in /  999.3hPa Calm     96% 0.02in /  0.5mm 0 W/m2
01:27 42.1 °F /  5.6 °C 41 °F /  5 °C 29.5in /  999.3hPa Calm     96% 0.02in /  0.5mm 0 W/m2
01:32 42.1 °F /  5.6 °C 41 °F /  5 °C 29.5in /  999.3hPa Calm     96% 0.02in /  0.5mm 0 W/m2
01:37 42.1 °F /  5.6 °C 41 °F /  5 °C 29.5in /  999.3hPa Calm     96% 0.02in /  0.5mm 0 W/m2
01:42 42.1 °F /  5.6 °C 41 °F /  5 °C 29.5in /  999.0hPa Calm     96% 0.02in /  0.5mm 0 W/m2
01:47 42.1 °F /  5.6 °C 41 °F /  5 °C 29.5in /  999.0hPa Calm     96% 0.02in /  0.5mm 0 W/m2
01:52 42.1 °F /  5.6 °C 41 °F /  5 °C 29.5in /  999.0hPa Calm     96% 0.02in /  0.5mm 0 W/m2
01:57 42.1 °F /  5.6 °C 41.4 °F /  5.2 °C 29.5in /  999.0hPa Calm     97% 0.02in /  0.5mm 0 W/m2
02:02 42.3 °F /  5.7 °C 41.5 °F /  5.3 °C 29.5in /  999.0hPa Calm     97% 0.02in /  0.5mm 0 W/m2
02:07 42.3 °F /  5.7 °C 41.5 °F /  5.3 °C 29.5in /  999.0hPa Calm     97% 0.03in /  0.8mm 0 W/m2
02:12 42.3 °F /  5.7 °C 41.5 °F /  5.3 °C 29.5in /  999.0hPa Calm     97% 0.03in /  0.8mm 0 W/m2
02:17 42.3 °F /  5.7 °C 41.5 °F /  5.3 °C 29.5in /  999.0hPa Calm     97% 0.04in /  1.0mm 0 W/m2
02:22 42.3 °F /  5.7 °C 41.5 °F /  5.3 °C 29.5in /  998.6hPa Calm     97% 0.04in /  1.0mm 0 W/m2
02:27 42.4 °F /  5.8 °C 41.7 °F /  5.4 °C 29.5in /  999.0hPa Calm     97% 0.05in /  1.3mm 0 W/m2
02:32 42.4 °F /  5.8 °C 41.7 °F /  5.4 °C 29.5in /  998.6hPa Calm     97% 0.06in /  1.5mm 0 W/m2
02:37 42.4 °F /  5.8 °C 41.7 °F /  5.4 °C 29.5in /  998.6hPa Calm     97% 0.06in /  1.5mm 0 W/m2
02:42 42.4 °F /  5.8 °C 41.7 °F /  5.4 °C 29.5in /  998.6hPa Calm   1mph /  1.6km/h 97% 0.06in /  1.5mm 0 W/m2
02:47 42.6 °F /  5.9 °C 41.9 °F /  5.5 °C 29.5in /  998.6hPa Calm     97% 0.08in /  2.0mm 0 W/m2
02:52 42.6 °F /  5.9 °C 41.9 °F /  5.5 °C 29.5in /  998.6hPa Calm     97% 0.08in /  2.0mm 0 W/m2
02:57 42.6 °F /  5.9 °C 41.9 °F /  5.5 °C 29.5in /  998.6hPa SE 2mph /  3.2km/h 2mph /  3.2km/h 97% 0.09in /  2.3mm 0 W/m2
03:02 42.8 °F /  6 °C 42.1 °F /  5.6 °C 29.5in /  998.3hPa Calm   1mph /  1.6km/h 97% 0.1in /  2.5mm 0 W/m2
03:08 43 °F /  6.1 °C 42.3 °F /  5.7 °C 29.5in /  998.3hPa Calm     97% 0.11in /  2.8mm 0 W/m2
03:13 43 °F /  6.1 °C 42.3 °F /  5.7 °C 29.5in /  998.0hPa Calm     97% 0.12in /  3.0mm 0 W/m2
03:18 43 °F /  6.1 °C 42.3 °F /  5.7 °C 29.5in /  998.0hPa Calm     97% 0.13in /  3.3mm 0 W/m2
03:23 43 °F /  6.1 °C 42.3 °F /  5.7 °C 29.5in /  998.0hPa Calm   1mph /  1.6km/h 97% 0.13in /  3.3mm 0 W/m2
03:28 43.2 °F /  6.2 °C 42.4 °F /  5.8 °C 29.5in /  998.0hPa Calm     97% 0.13in /  3.3mm 0 W/m2
03:33 43.2 °F /  6.2 °C 42.4 °F /  5.8 °C 29.5in /  998.0hPa Calm   1mph /  1.6km/h 97% 0.12in /  3.0mm 0 W/m2
03:38 43.3 °F /  6.3 °C 42.6 °F /  5.9 °C 29.5in /  998.0hPa Calm     97% 0.11in /  2.8mm 0 W/m2
03:43 43.3 °F /  6.3 °C 42.6 °F /  5.9 °C 29.5in /  997.6hPa Calm   1mph /  1.6km/h 97% 0.11in /  2.8mm 0 W/m2
03:48 43.5 °F /  6.4 °C 42.8 °F /  6 °C 29.5in /  997.6hPa East 0.9mph /  1.4km/h 2mph /  3.2km/h 97% 0.09in /  2.3mm 0 W/m2
03:53 43.9 °F /  6.6 °C 43.2 °F /  6.2 °C 29.5in /  997.6hPa Calm   2mph /  3.2km/h 97% 0.09in /  2.3mm 0 W/m2
03:58 43.9 °F /  6.6 °C 43.2 °F /  6.2 °C 29.5in /  997.6hPa ENE 0.9mph /  1.4km/h 3mph /  4.8km/h 97% 0.08in /  2.0mm 0 W/m2
04:03 44.1 °F /  6.7 °C 43.3 °F /  6.3 °C 29.5in /  997.3hPa ESE 0.9mph /  1.4km/h 3mph /  4.8km/h 97% 0.08in /  2.0mm 0 W/m2
04:08 44.1 °F /  6.7 °C 43.3 °F /  6.3 °C 29.5in /  997.3hPa SE 2mph /  3.2km/h 3mph /  4.8km/h 97% 0.08in /  2.0mm 0 W/m2
04:13 44.1 °F /  6.7 °C 43.3 °F /  6.3 °C 29.5in /  997.3hPa Calm   3mph /  4.8km/h 97% 0.08in /  2.0mm 0 W/m2
04:18 44.2 °F /  6.8 °C 43.5 °F /  6.4 °C 29.5in /  997.3hPa Calm   2mph /  3.2km/h 97% 0.08in /  2.0mm 0 W/m2
04:23 44.2 °F /  6.8 °C 43.5 °F /  6.4 °C 29.5in /  997.3hPa ESE 2mph /  3.2km/h 6mph /  9.7km/h 97% 0.07in /  1.8mm 0 W/m2
04:40 44.2 °F /  6.8 °C 43.5 °F /  6.4 °C 29.5in /  997.3hPa ENE 0.9mph /  1.4km/h 4mph /  6.4km/h 97% 0.08in /  2.0mm 0 W/m2
04:50 44.2 °F /  6.8 °C 43.5 °F /  6.4 °C 29.4in /  997.0hPa Calm   4mph /  6.4km/h 97% 0.09in /  2.3mm 0 W/m2
04:55 44.2 °F /  6.8 °C 43.5 °F /  6.4 °C 29.4in /  997.0hPa Calm     97% 0.09in /  2.3mm 0 W/m2
05:00 44.2 °F /  6.8 °C 43.5 °F /  6.4 °C 29.4in /  997.0hPa Calm   2mph /  3.2km/h 97% 0.09in /  2.3mm 0 W/m2
05:05 44.2 °F /  6.8 °C 43.5 °F /  6.4 °C 29.4in /  997.0hPa East 2mph /  3.2km/h 2mph /  3.2km/h 97% 0.1in /  2.5mm 0 W/m2
05:10 44.2 °F /  6.8 °C 43.5 °F /  6.4 °C 29.4in /  997.0hPa ENE 2mph /  3.2km/h 2mph /  3.2km/h 97% 0.09in /  2.3mm 0 W/m2
05:15 44.2 °F /  6.8 °C 43.5 °F /  6.4 °C 29.4in /  997.0hPa Calm   2mph /  3.2km/h 97% 0.09in /  2.3mm 0 W/m2
05:20 44.2 °F /  6.8 °C 43.5 °F /  6.4 °C 29.4in /  997.0hPa ENE 0.9mph /  1.4km/h 2mph /  3.2km/h 97% 0.09in /  2.3mm 0 W/m2
05:25 44.2 °F /  6.8 °C 43.5 °F /  6.4 °C 29.4in /  996.6hPa East 0.9mph /  1.4km/h   97% 0.09in /  2.3mm 0 W/m2
05:30 44.2 °F /  6.8 °C 43.5 °F /  6.4 °C 29.4in /  996.6hPa East 2.9mph /  4.7km/h 4mph /  6.4km/h 97% 0.1in /  2.5mm 0 W/m2
05:35 44.2 °F /  6.8 °C 43.5 °F /  6.4 °C 29.4in /  996.6hPa SE 0.9mph /  1.4km/h 2mph /  3.2km/h 97% 0.11in /  2.8mm 0 W/m2
05:40 44.2 °F /  6.8 °C 43.5 °F /  6.4 °C 29.4in /  996.6hPa Calm   4mph /  6.4km/h 97% 0.1in /  2.5mm 0 W/m2
05:45 44.2 °F /  6.8 °C 43.5 °F /  6.4 °C 29.4in /  996.6hPa Calm     97% 0.1in /  2.5mm 0 W/m2
05:50 44.2 °F /  6.8 °C 43.5 °F /  6.4 °C 29.4in /  996.3hPa ESE 0.9mph /  1.4km/h 3mph /  4.8km/h 97% 0.1in /  2.5mm 0 W/m2
05:55 44.2 °F /  6.8 °C 43.5 °F /  6.4 °C 29.4in /  996.3hPa East 0.9mph /  1.4km/h 3mph /  4.8km/h 97% 0.1in /  2.5mm 0 W/m2
06:00 44.2 °F /  6.8 °C 43.5 °F /  6.4 °C 29.4in /  996.3hPa Calm     97% 0.09in /  2.3mm 0 W/m2
06:05 44.2 °F /  6.8 °C 43.5 °F /  6.4 °C 29.4in /  996.3hPa Calm   2mph /  3.2km/h 97% 0.09in /  2.3mm 0 W/m2
06:10 44.2 °F /  6.8 °C 43.5 °F /  6.4 °C 29.4in /  996.3hPa ESE 0.9mph /  1.4km/h 6mph /  9.7km/h 97% 0.08in /  2.0mm 0 W/m2
06:15 44.2 °F /  6.8 °C 43.5 °F /  6.4 °C 29.4in /  995.9hPa ENE 0.9mph /  1.4km/h 2mph /  3.2km/h 97% 0.07in /  1.8mm 0 W/m2
06:20 44.2 °F /  6.8 °C 43.5 °F /  6.4 °C 29.4in /  995.9hPa ENE 0.9mph /  1.4km/h 2mph /  3.2km/h 97% 0.06in /  1.5mm 0 W/m2
06:25 44.2 °F /  6.8 °C 43.5 °F /  6.4 °C 29.4in /  995.9hPa Calm   2mph /  3.2km/h 97% 0.06in /  1.5mm 0 W/m2
06:30 44.2 °F /  6.8 °C 43.5 °F /  6.4 °C 29.4in /  995.9hPa East 0.9mph /  1.4km/h 2mph /  3.2km/h 97% 0.06in /  1.5mm 0 W/m2
06:35 44.2 °F /  6.8 °C 43.5 °F /  6.4 °C 29.4in /  995.9hPa Calm   3mph /  4.8km/h 97% 0.06in /  1.5mm 0 W/m2
06:40 44.2 °F /  6.8 °C 43.5 °F /  6.4 °C 29.4in /  995.9hPa Calm     97% 0.06in /  1.5mm 0 W/m2
06:50 44.2 °F /  6.8 °C 43.5 °F /  6.4 °C 29.4in /  995.9hPa Calm   1mph /  1.6km/h 97% 0.05in /  1.3mm 0 W/m2
06:55 44.2 °F /  6.8 °C 43.5 °F /  6.4 °C 29.4in /  995.9hPa Calm   1mph /  1.6km/h 97% 0.06in /  1.5mm 0 W/m2
07:00 44.2 °F /  6.8 °C 43.5 °F /  6.4 °C 29.4in /  995.9hPa Calm   1mph /  1.6km/h 97% 0.06in /  1.5mm 0 W/m2
07:05 44.2 °F /  6.8 °C 43.5 °F /  6.4 °C 29.4in /  995.9hPa Calm   1mph /  1.6km/h 97% 0.06in /  1.5mm 0 W/m2
07:10 44.2 °F /  6.8 °C 43.5 °F /  6.4 °C 29.4in /  995.9hPa Calm     97% 0.07in /  1.8mm 0 W/m2
07:15 44.2 °F /  6.8 °C 43.5 °F /  6.4 °C 29.4in /  995.6hPa Calm   1mph /  1.6km/h 97% 0.07in /  1.8mm 0 W/m2
07:20 44.2 °F /  6.8 °C 43.5 °F /  6.4 °C 29.4in /  995.9hPa ESE 0.9mph /  1.4km/h 1mph /  1.6km/h 97% 0.08in /  2.0mm 0 W/m2
07:26 44.4 °F /  6.9 °C 43.7 °F /  6.5 °C 29.4in /  995.9hPa WSW 0.9mph /  1.4km/h 2mph /  3.2km/h 97% 0.09in /  2.3mm 0 W/m2
07:31 44.4 °F /  6.9 °C 43.7 °F /  6.5 °C 29.4in /  995.9hPa Calm   1mph /  1.6km/h 97% 0.08in /  2.0mm 0 W/m2
07:36 44.4 °F /  6.9 °C 43.7 °F /  6.5 °C 29.4in /  995.9hPa WNW 0.9mph /  1.4km/h 3mph /  4.8km/h 97% 0.07in /  1.8mm 0 W/m2
07:41 44.4 °F /  6.9 °C 43.7 °F /  6.5 °C 29.4in /  995.9hPa Calm     97% 0.06in /  1.5mm 0 W/m2
07:46 44.4 °F /  6.9 °C 43.7 °F /  6.5 °C 29.4in /  995.9hPa Calm   1mph /  1.6km/h 97% 0.07in /  1.8mm 0 W/m2
07:51 44.4 °F /  6.9 °C 43.7 °F /  6.5 °C 29.4in /  995.9hPa Calm     97% 0.06in /  1.5mm 0 W/m2
07:56 44.4 °F /  6.9 °C 43.7 °F /  6.5 °C 29.4in /  995.9hPa Calm     97% 0.06in /  1.5mm 0 W/m2
08:01 44.4 °F /  6.9 °C 43.7 °F /  6.5 °C 29.4in /  995.9hPa Calm     97% 0.05in /  1.3mm 0 W/m2
08:06 44.6 °F /  7 °C 43.9 °F /  6.6 °C 29.4in /  995.9hPa Calm     97% 0.05in /  1.3mm 0 W/m2
08:11 44.6 °F /  7 °C 43.9 °F /  6.6 °C 29.4in /  995.9hPa Calm     97% 0.05in /  1.3mm 0 W/m2
08:16 44.6 °F /  7 °C 43.9 °F /  6.6 °C 29.4in /  995.9hPa Calm     97% 0.05in /  1.3mm 0 W/m2
08:21 44.8 °F /  7.1 °C 44.1 °F /  6.7 °C 29.4in /  995.9hPa Calm     97% 0.07in /  1.8mm 0 W/m2
08:26 44.8 °F /  7.1 °C 44.1 °F /  6.7 °C 29.4in /  995.9hPa Calm     97% 0.08in /  2.0mm 5 W/m2
08:31 44.8 °F /  7.1 °C 44.1 °F /  6.7 °C 29.4in /  995.9hPa Calm     97% 0.09in /  2.3mm 5 W/m2
08:36 44.8 °F /  7.1 °C 44.1 °F /  6.7 °C 29.4in /  995.9hPa Calm     97% 0.09in /  2.3mm 11 W/m2
08:41 44.8 °F /  7.1 °C 44.1 °F /  6.7 °C 29.4in /  996.3hPa Calm     97% 0.09in /  2.3mm 5 W/m2
08:46 44.8 °F /  7.1 °C 44.1 °F /  6.7 °C 29.4in /  996.6hPa West 0.9mph /  1.4km/h 2mph /  3.2km/h 97% 0.09in /  2.3mm 9 W/m2
08:51 45 °F /  7.2 °C 44.2 °F /  6.8 °C 29.4in /  996.3hPa Calm   3mph /  4.8km/h 97% 0.09in /  2.3mm 18 W/m2
08:56 45 °F /  7.2 °C 44.2 °F /  6.8 °C 29.4in /  996.6hPa Calm     97% 0.1in /  2.5mm 25 W/m2
09:01 45.1 °F /  7.3 °C 44.4 °F /  6.9 °C 29.4in /  996.6hPa Calm   3mph /  4.8km/h 97% 0.1in /  2.5mm 32 W/m2
09:06 45.1 °F /  7.3 °C 44.4 °F /  6.9 °C 29.4in /  996.6hPa Calm     97% 0.09in /  2.3mm 46 W/m2
09:11 45.3 °F /  7.4 °C 44.6 °F /  7 °C 29.4in /  996.6hPa Calm     97% 0.09in /  2.3mm 40 W/m2
09:16 45.3 °F /  7.4 °C 44.6 °F /  7 °C 29.4in /  996.6hPa Calm     97% 0.08in /  2.0mm 28 W/m2
09:21 45.5 °F /  7.5 °C 44.8 °F /  7.1 °C 29.4in /  996.6hPa Calm     97% 0.06in /  1.5mm 32 W/m2
09:26 45.7 °F /  7.6 °C 45 °F /  7.2 °C 29.4in /  996.6hPa Calm     97% 0.05in /  1.3mm 28 W/m2
09:31 45.9 °F /  7.7 °C 45.3 °F /  7.4 °C 29.4in /  996.6hPa Calm     98% 0.04in /  1.0mm 49 W/m2
09:36 45.9 °F /  7.7 °C 45.1 °F /  7.3 °C 29.4in /  997.0hPa Calm     97% 0.04in /  1.0mm 30 W/m2
09:41 46 °F /  7.8 °C 45.3 °F /  7.4 °C 29.4in /  997.0hPa Calm     97% 0.04in /  1.0mm 58 W/m2
09:46 46.2 °F /  7.9 °C 45.7 °F /  7.6 °C 29.4in /  997.0hPa Calm     98% 0.03in /  0.8mm 81 W/m2
09:51 46.6 °F /  8.1 °C 45.9 °F /  7.7 °C 29.4in /  996.6hPa Calm   1mph /  1.6km/h 97% 0.02in /  0.5mm 90 W/m2
09:56 46.8 °F /  8.2 °C 46 °F /  7.8 °C 29.4in /  996.6hPa Calm     97% 0.02in /  0.5mm 97 W/m2
10:01 46.9 °F /  8.3 °C 46.4 °F /  8 °C 29.4in /  996.6hPa Calm   1mph /  1.6km/h 98% 0.02in /  0.5mm 84 W/m2
10:06 47.1 °F /  8.4 °C 46.6 °F /  8.1 °C 29.4in /  997.0hPa ENE 0.9mph /  1.4km/h 1mph /  1.6km/h 98% 0.02in /  0.5mm 81 W/m2
10:11 47.1 °F /  8.4 °C 46.4 °F /  8 °C 29.4in /  997.0hPa Calm     97% 0.01in /  0.2mm 62 W/m2
10:16 47.3 °F /  8.5 °C 46.6 °F /  8.1 °C 29.4in /  997.0hPa ENE 0.9mph /  1.4km/h 4mph /  6.4km/h 97% 0.01in /  0.2mm 67 W/m2
10:21 47.3 °F /  8.5 °C 46.8 °F /  8.2 °C 29.4in /  997.0hPa NE 0.9mph /  1.4km/h 2mph /  3.2km/h 98% 0in /  0.0mm 60 W/m2
10:26 47.5 °F /  8.6 °C 46.9 °F /  8.3 °C 29.4in /  997.0hPa Calm   1mph /  1.6km/h 98% 0in /  0.0mm 62 W/m2
10:31 47.5 °F /  8.6 °C 46.9 °F /  8.3 °C 29.4in /  997.0hPa Calm   3mph /  4.8km/h 98% 0in /  0.0mm 165 W/m2
10:36 47.8 °F /  8.8 °C 46.9 °F /  8.3 °C 29.4in /  997.0hPa NE 2mph /  3.2km/h 3mph /  4.8km/h 97% 0in /  0.0mm 188 W/m2
10:41 48 °F /  8.9 °C 47.5 °F /  8.6 °C 29.4in /  997.0hPa Calm   2mph /  3.2km/h 98% 0in /  0.0mm 181 W/m2
10:46 48.4 °F /  9.1 °C 47.8 °F /  8.8 °C 29.4in /  997.0hPa NNW 2.9mph /  4.7km/h 3mph /  4.8km/h 98% 0in /  0.0mm 195 W/m2
10:51 48.6 °F /  9.2 °C 48 °F /  8.9 °C 29.4in /  997.0hPa WNW 2.9mph /  4.7km/h 3mph /  4.8km/h 98% 0in /  0.0mm 174 W/m2
10:56 48.4 °F /  9.1 °C 47.8 °F /  8.8 °C 29.4in /  997.0hPa SSE 0.9mph /  1.4km/h 2mph /  3.2km/h 98% 0in /  0.0mm 214 W/m2
11:01 48.7 °F /  9.3 °C 48.2 °F /  9 °C 29.4in /  997.0hPa ENE 2.9mph /  4.7km/h 4mph /  6.4km/h 98% 0in /  0.0mm 155 W/m2
11:06 48.7 °F /  9.3 °C 47.8 °F /  8.8 °C 29.4in /  997.0hPa ENE 2.9mph /  4.7km/h 5mph /  8km/h 97% 0in /  0.0mm 97 W/m2
11:11 49.1 °F /  9.5 °C 48.2 °F /  9 °C 29.4in /  997.0hPa WNW 6mph /  9.7km/h 8mph /  12.9km/h 97% 0in /  0.0mm 127 W/m2
11:16 49.3 °F /  9.6 °C 48.4 °F /  9.1 °C 29.4in /  997.0hPa Calm   4mph /  6.4km/h 97% 0in /  0.0mm 155 W/m2
11:21 49.5 °F /  9.7 °C 48.4 °F /  9.1 °C 29.4in /  997.0hPa NW 4.9mph /  7.9km/h 5mph /  8km/h 96% 0in /  0.0mm 121 W/m2
11:26 49.6 °F /  9.8 °C 48.2 °F /  9 °C 29.4in /  997.0hPa North 2mph /  3.2km/h 4mph /  6.4km/h 95% 0in /  0.0mm 153 W/m2
11:31 49.8 °F /  9.9 °C 48.2 °F /  9 °C 29.4in /  997.0hPa NNW 0.9mph /  1.4km/h 4mph /  6.4km/h 94% 0in /  0.0mm 190 W/m2
11:36 50.2 °F /  10.1 °C 48.2 °F /  9 °C 29.4in /  997.0hPa ESE 0.9mph /  1.4km/h 4mph /  6.4km/h 93% 0in /  0.0mm 229 W/m2
11:41 50.4 °F /  10.2 °C 48.2 °F /  9 °C 29.4in /  997.0hPa ENE 2.9mph /  4.7km/h 5mph /  8km/h 92% 0in /  0.0mm 225 W/m2
11:46 50.4 °F /  10.2 °C 47.5 °F /  8.6 °C 29.4in /  997.0hPa WSW 2mph /  3.2km/h 9mph /  14.5km/h 90% 0in /  0.0mm 90 W/m2
11:51 50.4 °F /  10.2 °C 47.5 °F /  8.6 °C 29.4in /  997.0hPa Calm   2mph /  3.2km/h 90% 0in /  0.0mm 76 W/m2
11:56 50.4 °F /  10.2 °C 47.5 °F /  8.6 °C 29.5in /  997.3hPa Calm   9mph /  14.5km/h 90% 0in /  0.0mm 44 W/m2
12:01 49.8 °F /  9.9 °C 46.9 °F /  8.3 °C 29.5in /  997.3hPa North 0.9mph /  1.4km/h 4mph /  6.4km/h 90% 0in /  0.0mm 58 W/m2
12:06 49.6 °F /  9.8 °C 46.8 °F /  8.2 °C 29.5in /  997.3hPa NW 2mph /  3.2km/h 4mph /  6.4km/h 90% 0in /  0.0mm 72 W/m2
12:11 49.5 °F /  9.7 °C 46.6 °F /  8.1 °C 29.5in /  997.3hPa Calm   2mph /  3.2km/h 90% 0in /  0.0mm 93 W/m2
12:16 49.5 °F /  9.7 °C 46.9 °F /  8.3 °C 29.5in /  997.3hPa NW 0.9mph /  1.4km/h 2mph /  3.2km/h 91% 0.01in /  0.2mm 65 W/m2
12:21 49.3 °F /  9.6 °C 46.8 °F /  8.2 °C 29.5in /  997.3hPa Calm     91% 0.01in /  0.2mm 54 W/m2
12:26 49.3 °F /  9.6 °C 47.1 °F /  8.4 °C 29.5in /  997.3hPa Calm   1mph /  1.6km/h 92% 0.01in /  0.2mm 169 W/m2
12:31 49.3 °F /  9.6 °C 47.1 °F /  8.4 °C 29.5in /  997.3hPa Calm   2mph /  3.2km/h 92% 0.01in /  0.2mm 190 W/m2
12:36 49.3 °F /  9.6 °C 47.1 °F /  8.4 °C 29.5in /  997.3hPa ENE 2.9mph /  4.7km/h 10mph /  16.1km/h 92% 0.01in /  0.2mm 65 W/m2
12:41 49.3 °F /  9.6 °C 47.1 °F /  8.4 °C 29.5in /  997.3hPa NW 2.9mph /  4.7km/h 5mph /  8km/h 92% 0.01in /  0.2mm 37 W/m2
12:46 49.1 °F /  9.5 °C 46.9 °F /  8.3 °C 29.5in /  997.3hPa West 0.9mph /  1.4km/h 10mph /  16.1km/h 92% 0.01in /  0.2mm 114 W/m2
12:51 48.9 °F /  9.4 °C 46.8 °F /  8.2 °C 29.5in /  997.3hPa NW 2mph /  3.2km/h 2mph /  3.2km/h 92% 0.01in /  0.2mm 113 W/m2
12:56 48.9 °F /  9.4 °C 46.4 °F /  8 °C 29.5in /  997.3hPa WNW 2mph /  3.2km/h 3mph /  4.8km/h 91% 0.01in /  0.2mm 162 W/m2
13:01 48.9 °F /  9.4 °C 46 °F /  7.8 °C 29.5in /  997.3hPa SSW 2.9mph /  4.7km/h 10mph /  16.1km/h 90% 0.01in /  0.2mm 128 W/m2
13:06 48.9 °F /  9.4 °C 46 °F /  7.8 °C 29.5in /  997.3hPa North 0.9mph /  1.4km/h 2mph /  3.2km/h 90% 0.01in /  0.2mm 128 W/m2
13:12 49.1 °F /  9.5 °C 46.2 °F /  7.9 °C 29.5in /  997.3hPa Calm   10mph /  16.1km/h 90% 0.01in /  0.2mm 144 W/m2
13:17 49.3 °F /  9.6 °C 46.4 °F /  8 °C 29.5in /  997.3hPa NNW 0.9mph /  1.4km/h 3mph /  4.8km/h 90% 0in /  0.0mm 156 W/m2
13:22 49.3 °F /  9.6 °C 45.9 °F /  7.7 °C 29.5in /  997.3hPa Calm   2mph /  3.2km/h 88% 0in /  0.0mm 176 W/m2
13:27 49.3 °F /  9.6 °C 45.5 °F /  7.5 °C 29.5in /  997.3hPa West 6.9mph /  11.1km/h 9mph /  14.5km/h 87% 0in /  0.0mm 72 W/m2
13:32 49.1 °F /  9.5 °C 45.1 °F /  7.3 °C 29.5in /  997.3hPa NW 4mph /  6.4km/h 6mph /  9.7km/h 86% 0in /  0.0mm 98 W/m2
13:37 48.9 °F /  9.4 °C 44.6 °F /  7 °C 29.5in /  997.3hPa NNW 2.9mph /  4.7km/h 4mph /  6.4km/h 85% 0in /  0.0mm 130 W/m2
13:42 48.7 °F /  9.3 °C 44.4 °F /  6.9 °C 29.5in /  997.3hPa NW 2mph /  3.2km/h 4mph /  6.4km/h 85% 0in /  0.0mm 186 W/m2
13:48 48.7 °F /  9.3 °C 44.4 °F /  6.9 °C 29.5in /  997.3hPa NNW 0.9mph /  1.4km/h 4mph /  6.4km/h 85% 0in /  0.0mm 214 W/m2
13:53 48.7 °F /  9.3 °C 44.4 °F /  6.9 °C 29.5in /  997.3hPa NW 0.9mph /  1.4km/h 2mph /  3.2km/h 85% 0in /  0.0mm 146 W/m2
13:58 48.9 °F /  9.4 °C 44.6 °F /  7 °C 29.5in /  997.3hPa NW 2.9mph /  4.7km/h 7mph /  11.3km/h 85% 0in /  0.0mm 146 W/m2
14:03 48.9 °F /  9.4 °C 44.6 °F /  7 °C 29.5in /  997.3hPa Calm   8mph /  12.9km/h 85% 0in /  0.0mm 127 W/m2
14:08 48.9 °F /  9.4 °C 44.6 °F /  7 °C 29.5in /  997.3hPa NNE 2.9mph /  4.7km/h 4mph /  6.4km/h 85% 0in /  0.0mm 121 W/m2
14:13 48.9 °F /  9.4 °C 44.2 °F /  6.8 °C 29.5in /  997.3hPa Calm   5mph /  8km/h 84% 0in /  0.0mm 149 W/m2
14:18 48.9 °F /  9.4 °C 44.2 °F /  6.8 °C 29.5in /  997.3hPa SW 2mph /  3.2km/h 4mph /  6.4km/h 84% 0in /  0.0mm 160 W/m2
14:23 48.9 °F /  9.4 °C 44.2 °F /  6.8 °C 29.5in /  997.3hPa WNW 2.9mph /  4.7km/h 5mph /  8km/h 84% 0in /  0.0mm 135 W/m2
14:28 48.9 °F /  9.4 °C 44.2 °F /  6.8 °C 29.5in /  997.3hPa Calm   2mph /  3.2km/h 84% 0in /  0.0mm 102 W/m2
14:33 48.9 °F /  9.4 °C 44.2 °F /  6.8 °C 29.5in /  997.3hPa NE 0.9mph /  1.4km/h 2mph /  3.2km/h 84% 0in /  0.0mm 83 W/m2
14:38 48.9 °F /  9.4 °C 44.2 °F /  6.8 °C 29.5in /  997.3hPa Calm   3mph /  4.8km/h 84% 0in /  0.0mm 91 W/m2
14:43 48.9 °F /  9.4 °C 44.2 °F /  6.8 °C 29.5in /  997.3hPa Calm   1mph /  1.6km/h 84% 0in /  0.0mm 86 W/m2
14:48 48.9 °F /  9.4 °C 44.2 °F /  6.8 °C 29.5in /  997.3hPa Calm   4mph /  6.4km/h 84% 0in /  0.0mm 70 W/m2
14:53 48.9 °F /  9.4 °C 44.2 °F /  6.8 °C 29.5in /  997.3hPa Calm   1mph /  1.6km/h 84% 0in /  0.0mm 56 W/m2
14:58 48.9 °F /  9.4 °C 44.2 °F /  6.8 °C 29.5in /  997.3hPa WNW 0.9mph /  1.4km/h 4mph /  6.4km/h 84% 0in /  0.0mm 62 W/m2
15:03 48.7 °F /  9.3 °C 44.4 °F /  6.9 °C 29.5in /  997.3hPa Calm   3mph /  4.8km/h 85% 0in /  0.0mm 93 W/m2
15:08 48.9 °F /  9.4 °C 44.6 °F /  7 °C 29.5in /  997.3hPa Calm   2mph /  3.2km/h 85% 0in /  0.0mm 40 W/m2
15:13 48.9 °F /  9.4 °C 45 °F /  7.2 °C 29.5in /  997.3hPa NW 2mph /  3.2km/h 3mph /  4.8km/h 86% 0in /  0.0mm 40 W/m2
15:18 48.6 °F /  9.2 °C 44.8 °F /  7.1 °C 29.5in /  997.6hPa NNW 2.9mph /  4.7km/h 5mph /  8km/h 87% 0in /  0.0mm 32 W/m2
15:23 48.2 °F /  9 °C 44.8 °F /  7.1 °C 29.5in /  997.6hPa West 2mph /  3.2km/h 3mph /  4.8km/h 88% 0in /  0.0mm 46 W/m2
15:28 47.8 °F /  8.8 °C 44.8 °F /  7.1 °C 29.5in /  997.6hPa WNW 2mph /  3.2km/h 2mph /  3.2km/h 89% 0in /  0.0mm 100 W/m2
15:33 47.7 °F /  8.7 °C 45 °F /  7.2 °C 29.5in /  997.6hPa NW 2.9mph /  4.7km/h 3mph /  4.8km/h 90% 0in /  0.0mm 77 W/m2
15:38 47.5 °F /  8.6 °C 45 °F /  7.2 °C 29.5in /  997.6hPa Calm   2mph /  3.2km/h 91% 0in /  0.0mm 46 W/m2
15:43 47.5 °F /  8.6 °C 45 °F /  7.2 °C 29.5in /  997.6hPa NE 0.9mph /  1.4km/h 2mph /  3.2km/h 91% 0in /  0.0mm 44 W/m2
15:48 47.5 °F /  8.6 °C 45 °F /  7.2 °C 29.5in /  997.6hPa Calm   1mph /  1.6km/h 91% 0in /  0.0mm 62 W/m2
15:53 47.3 °F /  8.5 °C 45.1 °F /  7.3 °C 29.5in /  997.6hPa West 0.9mph /  1.4km/h 6mph /  9.7km/h 92% 0in /  0.0mm 79 W/m2
15:58 47.1 °F /  8.4 °C 45 °F /  7.2 °C 29.5in /  997.6hPa North 0.9mph /  1.4km/h 2mph /  3.2km/h 92% 0in /  0.0mm 69 W/m2
16:03 46.9 °F /  8.3 °C 44.8 °F /  7.1 °C 29.5in /  997.6hPa NW 2mph /  3.2km/h 6mph /  9.7km/h 92% 0in /  0.0mm 76 W/m2
16:08 46.9 °F /  8.3 °C 44.8 °F /  7.1 °C 29.5in /  997.6hPa WSW 0.9mph /  1.4km/h 4mph /  6.4km/h 92% 0.01in /  0.2mm 54 W/m2
16:13 46.9 °F /  8.3 °C 44.8 °F /  7.1 °C 29.5in /  997.6hPa NW 0.9mph /  1.4km/h 3mph /  4.8km/h 92% 0.01in /  0.2mm 26 W/m2
16:18 46.9 °F /  8.3 °C 44.8 °F /  7.1 °C 29.5in /  997.6hPa NW 0.9mph /  1.4km/h 1mph /  1.6km/h 92% 0.01in /  0.2mm 12 W/m2
16:23 46.9 °F /  8.3 °C 45 °F /  7.2 °C 29.5in /  998.0hPa East 0.9mph /  1.4km/h 3mph /  4.8km/h 93% 0.01in /  0.2mm 19 W/m2
16:28 46.8 °F /  8.2 °C 44.8 °F /  7.1 °C 29.5in /  998.0hPa Calm   3mph /  4.8km/h 93% 0.01in /  0.2mm 21 W/m2
16:33 46.9 °F /  8.3 °C 45 °F /  7.2 °C 29.5in /  998.0hPa Calm     93% 0.01in /  0.2mm 18 W/m2
16:38 46.8 °F /  8.2 °C 44.6 °F /  7 °C 29.5in /  998.0hPa West 4mph /  6.4km/h 4mph /  6.4km/h 92% 0.01in /  0.2mm 9 W/m2
16:43 46.6 °F /  8.1 °C 44.4 °F /  6.9 °C 29.5in /  998.0hPa West 4mph /  6.4km/h 7mph /  11.3km/h 92% 0.01in /  0.2mm 5 W/m2
16:48 46.2 °F /  7.9 °C 44.1 °F /  6.7 °C 29.5in /  998.0hPa WSW 4mph /  6.4km/h 5mph /  8km/h 92% 0.01in /  0.2mm 5 W/m2
16:53 45.9 °F /  7.7 °C 43.7 °F /  6.5 °C 29.5in /  998.0hPa West 8.1mph /  13km/h 10mph /  16.1km/h 92% 0.01in /  0.2mm 0 W/m2
16:58 45.1 °F /  7.3 °C 43 °F /  6.1 °C 29.5in /  998.3hPa West 2mph /  3.2km/h 9mph /  14.5km/h 92% 0.01in /  0.2mm 0 W/m2
17:03 44.8 °F /  7.1 °C 42.6 °F /  5.9 °C 29.5in /  998.3hPa West 10mph /  16.1km/h 10mph /  16.1km/h 92% 0.01in /  0.2mm 0 W/m2
17:08 44.4 °F /  6.9 °C 42.3 °F /  5.7 °C 29.5in /  998.3hPa WSW 6.9mph /  11.1km/h 8mph /  12.9km/h 92% 0in /  0.0mm 0 W/m2
17:13 44.2 °F /  6.8 °C 42.1 °F /  5.6 °C 29.5in /  998.3hPa WNW 2.9mph /  4.7km/h 3mph /  4.8km/h 92% 0in /  0.0mm 0 W/m2
17:18 44.1 °F /  6.7 °C 41.9 °F /  5.5 °C 29.5in /  998.3hPa NW 2mph /  3.2km/h 8mph /  12.9km/h 92% 0in /  0.0mm 0 W/m2
17:23 44.1 °F /  6.7 °C 41.9 °F /  5.5 °C 29.5in /  998.3hPa SW 2mph /  3.2km/h 3mph /  4.8km/h 92% 0in /  0.0mm 0 W/m2
17:28 43.9 °F /  6.6 °C 41.7 °F /  5.4 °C 29.5in /  998.6hPa WNW 4.9mph /  7.9km/h 7mph /  11.3km/h 92% 0in /  0.0mm 0 W/m2
17:33 43.7 °F /  6.5 °C 41.5 °F /  5.3 °C 29.5in /  998.6hPa West 4mph /  6.4km/h 4mph /  6.4km/h 92% 0in /  0.0mm 0 W/m2
17:38 43.5 °F /  6.4 °C 41.7 °F /  5.4 °C 29.5in /  998.6hPa WNW 5mph /  8km/h 5mph /  8km/h 93% 0in /  0.0mm 0 W/m2
17:43 43.3 °F /  6.3 °C 41.2 °F /  5.1 °C 29.5in /  998.6hPa WNW 2mph /  3.2km/h 4mph /  6.4km/h 92% 0in /  0.0mm 0 W/m2
17:48 43.3 °F /  6.3 °C 41.5 °F /  5.3 °C 29.5in /  998.6hPa WNW 0.9mph /  1.4km/h 3mph /  4.8km/h 93% 0in /  0.0mm 0 W/m2
17:53 43.3 °F /  6.3 °C 41.5 °F /  5.3 °C 29.5in /  998.6hPa WNW 2mph /  3.2km/h 3mph /  4.8km/h 93% 0in /  0.0mm 0 W/m2
17:58 43.3 °F /  6.3 °C 41.5 °F /  5.3 °C 29.5in /  998.6hPa WSW 4mph /  6.4km/h 5mph /  8km/h 93% 0in /  0.0mm 0 W/m2
18:03 43.2 °F /  6.2 °C 41.4 °F /  5.2 °C 29.5in /  998.6hPa West 0.9mph /  1.4km/h 4mph /  6.4km/h 93% 0in /  0.0mm 0 W/m2
18:08 43.3 °F /  6.3 °C 41.5 °F /  5.3 °C 29.5in /  998.6hPa West 2mph /  3.2km/h 3mph /  4.8km/h 93% 0in /  0.0mm 0 W/m2
18:13 43.2 °F /  6.2 °C 41.4 °F /  5.2 °C 29.5in /  998.6hPa NW 0.9mph /  1.4km/h 2mph /  3.2km/h 93% 0in /  0.0mm 0 W/m2
18:18 43.2 °F /  6.2 °C 41.4 °F /  5.2 °C 29.5in /  998.6hPa Calm   2mph /  3.2km/h 93% 0in /  0.0mm 0 W/m2
18:23 43.2 °F /  6.2 °C 41.4 °F /  5.2 °C 29.5in /  998.6hPa Calm   2mph /  3.2km/h 93% 0in /  0.0mm 0 W/m2
18:28 43.2 °F /  6.2 °C 41.4 °F /  5.2 °C 29.5in /  998.6hPa West 2mph /  3.2km/h 3mph /  4.8km/h 93% 0in /  0.0mm 0 W/m2
18:33 43.2 °F /  6.2 °C 41.4 °F /  5.2 °C 29.5in /  998.6hPa WSW 2.9mph /  4.7km/h 3mph /  4.8km/h 93% 0in /  0.0mm 0 W/m2
18:39 43.2 °F /  6.2 °C 41.4 °F /  5.2 °C 29.5in /  999.0hPa West 2mph /  3.2km/h 5mph /  8km/h 93% 0in /  0.0mm 0 W/m2
18:44 43 °F /  6.1 °C 41.2 °F /  5.1 °C 29.5in /  999.0hPa West 2.9mph /  4.7km/h 6mph /  9.7km/h 93% 0in /  0.0mm 0 W/m2
18:49 43 °F /  6.1 °C 41.2 °F /  5.1 °C 29.5in /  999.0hPa West 0.9mph /  1.4km/h 7mph /  11.3km/h 93% 0in /  0.0mm 0 W/m2
18:54 43 °F /  6.1 °C 41.2 °F /  5.1 °C 29.5in /  999.0hPa SW 2mph /  3.2km/h 6mph /  9.7km/h 93% 0in /  0.0mm 0 W/m2
18:59 43 °F /  6.1 °C 41.2 °F /  5.1 °C 29.5in /  999.0hPa WNW 2mph /  3.2km/h 6mph /  9.7km/h 93% 0in /  0.0mm 0 W/m2
19:04 43 °F /  6.1 °C 41.2 °F /  5.1 °C 29.5in /  999.0hPa WSW 4mph /  6.4km/h 7mph /  11.3km/h 93% 0in /  0.0mm 0 W/m2
19:09 43 °F /  6.1 °C 41.2 °F /  5.1 °C 29.5in /  999.0hPa NW 2mph /  3.2km/h 4mph /  6.4km/h 93% 0in /  0.0mm 0 W/m2
19:14 43 °F /  6.1 °C 41.2 °F /  5.1 °C 29.5in /  999.0hPa WNW 4.9mph /  7.9km/h 6mph /  9.7km/h 93% 0in /  0.0mm 0 W/m2
19:19 43 °F /  6.1 °C 41.2 °F /  5.1 °C 29.5in /  999.0hPa West 2mph /  3.2km/h 7mph /  11.3km/h 93% 0in /  0.0mm 0 W/m2
19:24 43 °F /  6.1 °C 41.2 °F /  5.1 °C 29.5in /  999.0hPa West 2.9mph /  4.7km/h 6mph /  9.7km/h 93% 0in /  0.0mm 0 W/m2
19:29 43 °F /  6.1 °C 41.2 °F /  5.1 °C 29.5in /  999.0hPa West 2.9mph /  4.7km/h 8mph /  12.9km/h 93% 0in /  0.0mm 0 W/m2
19:34 43 °F /  6.1 °C 41.2 °F /  5.1 °C 29.5in /  999.0hPa WNW 4mph /  6.4km/h 7mph /  11.3km/h 93% 0in /  0.0mm 0 W/m2
19:39 43.2 °F /  6.2 °C 41.4 °F /  5.2 °C 29.5in /  999.0hPa WNW 0.9mph /  1.4km/h 6mph /  9.7km/h 93% 0in /  0.0mm 0 W/m2
19:44 43.2 °F /  6.2 °C 41.4 °F /  5.2 °C 29.5in /  999.0hPa WNW 2mph /  3.2km/h 4mph /  6.4km/h 93% 0in /  0.0mm 0 W/m2
19:49 43 °F /  6.1 °C 41.2 °F /  5.1 °C 29.5in /  999.0hPa WNW 6.9mph /  11.1km/h 8mph /  12.9km/h 93% 0in /  0.0mm 0 W/m2
19:54 43 °F /  6.1 °C 41.2 °F /  5.1 °C 29.5in /  999.0hPa WSW 2.9mph /  4.7km/h 8mph /  12.9km/h 93% 0in /  0.0mm 0 W/m2
19:59 43.2 °F /  6.2 °C 41.4 °F /  5.2 °C 29.5in /  999.0hPa WNW 4.9mph /  7.9km/h 11mph /  17.7km/h 93% 0in /  0.0mm 0 W/m2
20:04 43.2 °F /  6.2 °C 41 °F /  5 °C 29.5in /  999.3hPa West 6mph /  9.7km/h 12mph /  19.3km/h 92% 0in /  0.0mm 0 W/m2
20:09 43.2 °F /  6.2 °C 41 °F /  5 °C 29.5in /  999.3hPa WNW 4mph /  6.4km/h 8mph /  12.9km/h 92% 0in /  0.0mm 0 W/m2
20:14 43.3 °F /  6.3 °C 41.2 °F /  5.1 °C 29.5in /  999.3hPa WNW 2.9mph /  4.7km/h 12mph /  19.3km/h 92% 0in /  0.0mm 0 W/m2
20:19 43.3 °F /  6.3 °C 41.2 °F /  5.1 °C 29.5in /  999.3hPa NW 4mph /  6.4km/h 10mph /  16.1km/h 92% 0in /  0.0mm 0 W/m2
20:24 43.3 °F /  6.3 °C 40.8 °F /  4.9 °C 29.5in /  999.3hPa WNW 4.9mph /  7.9km/h 8mph /  12.9km/h 91% 0in /  0.0mm 0 W/m2
20:29 43.3 °F /  6.3 °C 40.8 °F /  4.9 °C 29.5in /  999.7hPa West 4mph /  6.4km/h 8mph /  12.9km/h 91% 0in /  0.0mm 0 W/m2
20:34 43.3 °F /  6.3 °C 40.8 °F /  4.9 °C 29.5in /  999.7hPa WSW 10.1mph /  16.3km/h 11mph /  17.7km/h 91% 0in /  0.0mm 0 W/m2
20:39 43.2 °F /  6.2 °C 40.6 °F /  4.8 °C 29.5in /  1000.0hPa WNW 4.9mph /  7.9km/h 11mph /  17.7km/h 91% 0in /  0.0mm 0 W/m2
20:44 43.2 °F /  6.2 °C 40.6 °F /  4.8 °C 29.5in /  1000.0hPa NNW 4.9mph /  7.9km/h 11mph /  17.7km/h 91% 0in /  0.0mm 0 W/m2
20:49 43.2 °F /  6.2 °C 40.5 °F /  4.7 °C 29.5in /  1000.0hPa NNW 6mph /  9.7km/h 11mph /  17.7km/h 90% 0in /  0.0mm 0 W/m2
20:54 43.2 °F /  6.2 °C 40.5 °F /  4.7 °C 29.5in /  1000.3hPa WNW 6mph /  9.7km/h 8mph /  12.9km/h 90% 0in /  0.0mm 0 W/m2
20:59 43.2 °F /  6.2 °C 40.5 °F /  4.7 °C 29.5in /  1000.3hPa WSW 4.9mph /  7.9km/h 11mph /  17.7km/h 90% 0in /  0.0mm 0 W/m2
21:04 43.2 °F /  6.2 °C 40.5 °F /  4.7 °C 29.5in /  1000.3hPa West 6mph /  9.7km/h 10mph /  16.1km/h 90% 0in /  0.0mm 0 W/m2
21:09 43 °F /  6.1 °C 40.3 °F /  4.6 °C 29.5in /  1000.3hPa WNW 10.1mph /  16.3km/h 11mph /  17.7km/h 90% 0in /  0.0mm 0 W/m2
21:14 43 °F /  6.1 °C 40.3 °F /  4.6 °C 29.5in /  1000.3hPa NW 2.9mph /  4.7km/h 9mph /  14.5km/h 90% 0in /  0.0mm 0 W/m2
21:19 43 °F /  6.1 °C 40.3 °F /  4.6 °C 29.5in /  1000.3hPa West 6.9mph /  11.1km/h 13mph /  20.9km/h 90% 0in /  0.0mm 0 W/m2
21:24 43 °F /  6.1 °C 40.3 °F /  4.6 °C 29.5in /  1000.3hPa WNW 8.1mph /  13km/h 12mph /  19.3km/h 90% 0in /  0.0mm 0 W/m2
21:29 43 °F /  6.1 °C 40.3 °F /  4.6 °C 29.6in /  1000.7hPa WNW 11mph /  17.7km/h 11mph /  17.7km/h 90% 0in /  0.0mm 0 W/m2
21:34 43 °F /  6.1 °C 40.3 °F /  4.6 °C 29.6in /  1000.7hPa WSW 11mph /  17.7km/h 17mph /  27.4km/h 90% 0in /  0.0mm 0 W/m2
21:39 43 °F /  6.1 °C 40.3 °F /  4.6 °C 29.6in /  1000.7hPa NW 8.1mph /  13km/h 10mph /  16.1km/h 90% 0in /  0.0mm 0 W/m2
21:44 42.8 °F /  6 °C 40.3 °F /  4.6 °C 29.6in /  1000.7hPa West 4mph /  6.4km/h 17mph /  27.4km/h 91% 0in /  0.0mm 0 W/m2
21:49 42.8 °F /  6 °C 40.3 °F /  4.6 °C 29.6in /  1000.7hPa WNW 2.9mph /  4.7km/h 12mph /  19.3km/h 91% 0in /  0.0mm 0 W/m2
21:54 42.8 °F /  6 °C 40.3 °F /  4.6 °C 29.6in /  1000.7hPa NW 4.9mph /  7.9km/h 10mph /  16.1km/h 91% 0in /  0.0mm 0 W/m2
21:59 42.6 °F /  5.9 °C 40.1 °F /  4.5 °C 29.6in /  1000.7hPa WSW 8.9mph /  14.3km/h 9mph /  14.5km/h 91% 0in /  0.0mm 0 W/m2
22:04 42.8 °F /  6 °C 40.3 °F /  4.6 °C 29.6in /  1001.0hPa West 6mph /  9.7km/h 7mph /  11.3km/h 91% 0in /  0.0mm 0 W/m2
22:09 42.6 °F /  5.9 °C 40.1 °F /  4.5 °C 29.6in /  1000.7hPa West 13mph /  20.9km/h 13mph /  20.9km/h 91% 0in /  0.0mm 0 W/m2
22:14 42.8 °F /  6 °C 40.3 °F /  4.6 °C 29.6in /  1001.0hPa WNW 4.9mph /  7.9km/h 9mph /  14.5km/h 91% 0in /  0.0mm 0 W/m2
22:19 42.8 °F /  6 °C 40.3 °F /  4.6 °C 29.6in /  1001.0hPa WNW 6.9mph /  11.1km/h 8mph /  12.9km/h 91% 0in /  0.0mm 0 W/m2
22:24 42.8 °F /  6 °C 40.3 °F /  4.6 °C 29.6in /  1001.0hPa WNW 2mph /  3.2km/h 10mph /  16.1km/h 91% 0in /  0.0mm 0 W/m2
22:29 42.8 °F /  6 °C 40.3 °F /  4.6 °C 29.6in /  1001.0hPa WSW 4.9mph /  7.9km/h 11mph /  17.7km/h 91% 0in /  0.0mm 0 W/m2
22:34 42.8 °F /  6 °C 40.3 °F /  4.6 °C 29.6in /  1001.4hPa WSW 8.1mph /  13km/h 10mph /  16.1km/h 91% 0in /  0.0mm 0 W/m2
22:51 42.8 °F /  6 °C 40.3 °F /  4.6 °C 29.6in /  1001.4hPa NW 2.9mph /  4.7km/h 8mph /  12.9km/h 91% 0in /  0.0mm 0 W/m2
22:56 42.8 °F /  6 °C 40.3 °F /  4.6 °C 29.6in /  1001.4hPa WNW 4mph /  6.4km/h 10mph /  16.1km/h 91% 0in /  0.0mm 0 W/m2
23:01 42.8 °F /  6 °C 40.3 °F /  4.6 °C 29.6in /  1001.7hPa NW 4.9mph /  7.9km/h 9mph /  14.5km/h 91% 0in /  0.0mm 0 W/m2
23:06 42.8 °F /  6 °C 40.3 °F /  4.6 °C 29.6in /  1001.7hPa West 6mph /  9.7km/h 9mph /  14.5km/h 91% 0in /  0.0mm 0 W/m2
23:11 42.8 °F /  6 °C 40.3 °F /  4.6 °C 29.6in /  1001.7hPa NW 4.9mph /  7.9km/h 7mph /  11.3km/h 91% 0in /  0.0mm 0 W/m2
23:16 42.8 °F /  6 °C 40.3 °F /  4.6 °C 29.6in /  1001.7hPa WNW 4mph /  6.4km/h 8mph /  12.9km/h 91% 0in /  0.0mm 0 W/m2
23:21 43 °F /  6.1 °C 40.5 °F /  4.7 °C 29.6in /  1001.7hPa West 2.9mph /  4.7km/h 8mph /  12.9km/h 91% 0in /  0.0mm 0 W/m2
23:26 42.8 °F /  6 °C 40.3 °F /  4.6 °C 29.6in /  1001.7hPa West 6mph /  9.7km/h 10mph /  16.1km/h 91% 0in /  0.0mm 0 W/m2
23:32 42.6 °F /  5.9 °C 40.5 °F /  4.7 °C 29.6in /  1001.7hPa West 6mph /  9.7km/h 9mph /  14.5km/h 92% 0in /  0.0mm 0 W/m2
23:37 42.4 °F /  5.8 °C 40.3 °F /  4.6 °C 29.6in /  1001.7hPa WNW 6.9mph /  11.1km/h 7mph /  11.3km/h 92% 0in /  0.0mm 0 W/m2
23:42 42.4 °F /  5.8 °C 40.3 °F /  4.6 °C 29.6in /  1001.7hPa West 6mph /  9.7km/h 8mph /  12.9km/h 92% 0in /  0.0mm 0 W/m2
23:47 42.4 °F /  5.8 °C 40.3 °F /  4.6 °C 29.6in /  1001.7hPa WNW 8.1mph /  13km/h 8mph /  12.9km/h 92% 0in /  0.0mm 0 W/m2
23:52 42.4 °F /  5.8 °C 40.3 °F /  4.6 °C 29.6in /  1001.7hPa West 6mph /  9.7km/h 7mph /  11.3km/h 92% 0in /  0.0mm 0 W/m2
23:57 42.4 °F /  5.8 °C 40.3 °F /  4.6 °C 29.6in /  1001.7hPa West 2.9mph /  4.7km/h 9mph /  14.5km/h 92% 0in /  0.0mm 0 W/m2
Juneau County Weather
Compliments of Weather Underground - 4 mb